sensor_id;sensor_type;location;lat;lon;timestamp;P1;durP1;ratioP1;P2;durP2;ratioP2
61322;SDS011;47203;48.428;11.974;2023-04-15T00:00:01;4.22;;;3.38;;
61322;SDS011;47203;48.428;11.974;2023-04-15T00:02:13;6.13;;;3.90;;
61322;SDS011;47203;48.428;11.974;2023-04-15T00:04:21;4.30;;;3.30;;
61322;SDS011;47203;48.428;11.974;2023-04-15T00:06:26;5.10;;;4.00;;
61322;SDS011;47203;48.428;11.974;2023-04-15T00:08:31;7.00;;;3.90;;
61322;SDS011;47203;48.428;11.974;2023-04-15T00:10:36;4.60;;;3.53;;
61322;SDS011;47203;48.428;11.974;2023-04-15T00:12:41;5.82;;;4.07;;
61322;SDS011;47203;48.428;11.974;2023-04-15T00:14:46;4.85;;;3.70;;
61322;SDS011;47203;48.428;11.974;2023-04-15T00:16:51;3.70;;;3.30;;
61322;SDS011;47203;48.428;11.974;2023-04-15T00:18:57;5.25;;;3.63;;
61322;SDS011;47203;48.428;11.974;2023-04-15T00:21:05;5.97;;;3.72;;
61322;SDS011;47203;48.428;11.974;2023-04-15T00:23:10;5.18;;;3.60;;
61322;SDS011;47203;48.428;11.974;2023-04-15T00:25:15;6.07;;;3.70;;
61322;SDS011;47203;48.428;11.974;2023-04-15T00:27:20;5.63;;;4.15;;
61322;SDS011;47203;48.428;11.974;2023-04-15T00:29:24;5.38;;;3.17;;
61322;SDS011;47203;48.428;11.974;2023-04-15T00:31:30;5.50;;;3.90;;
61322;SDS011;47203;48.428;11.974;2023-04-15T00:33:35;5.03;;;3.80;;
61322;SDS011;47203;48.428;11.974;2023-04-15T00:35:40;6.28;;;4.00;;
61322;SDS011;47203;48.428;11.974;2023-04-15T00:37:48;5.50;;;4.00;;
61322;SDS011;47203;48.428;11.974;2023-04-15T00:39:52;5.60;;;3.90;;
61322;SDS011;47203;48.428;11.974;2023-04-15T00:41:57;5.13;;;3.72;;
61322;SDS011;47203;48.428;11.974;2023-04-15T00:44:02;4.25;;;3.45;;
61322;SDS011;47203;48.428;11.974;2023-04-15T00:46:07;4.97;;;4.18;;
61322;SDS011;47203;48.428;11.974;2023-04-15T00:48:13;5.28;;;3.90;;
61322;SDS011;47203;48.428;11.974;2023-04-15T00:50:19;5.07;;;3.92;;
61322;SDS011;47203;48.428;11.974;2023-04-15T00:52:24;6.13;;;3.97;;
61322;SDS011;47203;48.428;11.974;2023-04-15T00:54:31;6.38;;;3.75;;
61322;SDS011;47203;48.428;11.974;2023-04-15T00:56:37;5.25;;;4.03;;
61322;SDS011;47203;48.428;11.974;2023-04-15T00:58:43;4.97;;;3.85;;
61322;SDS011;47203;48.428;11.974;2023-04-15T01:00:48;5.35;;;4.50;;
61322;SDS011;47203;48.428;11.974;2023-04-15T01:02:54;4.95;;;3.90;;
61322;SDS011;47203;48.428;11.974;2023-04-15T01:04:59;5.43;;;4.18;;
61322;SDS011;47203;48.428;11.974;2023-04-15T01:07:04;5.88;;;3.92;;
61322;SDS011;47203;48.428;11.974;2023-04-15T01:09:09;7.68;;;3.83;;
61322;SDS011;47203;48.428;11.974;2023-04-15T01:11:17;6.60;;;4.60;;
61322;SDS011;47203;48.428;11.974;2023-04-15T01:13:23;5.78;;;3.92;;
61322;SDS011;47203;48.428;11.974;2023-04-15T01:15:28;4.88;;;4.00;;
61322;SDS011;47203;48.428;11.974;2023-04-15T01:17:33;5.18;;;3.75;;
61322;SDS011;47203;48.428;11.974;2023-04-15T01:19:40;4.70;;;4.10;;
61322;SDS011;47203;48.428;11.974;2023-04-15T01:21:45;4.88;;;4.03;;
61322;SDS011;47203;48.428;11.974;2023-04-15T01:23:51;4.55;;;3.33;;
61322;SDS011;47203;48.428;11.974;2023-04-15T01:26:01;5.47;;;4.03;;
61322;SDS011;47203;48.428;11.974;2023-04-15T01:28:06;6.15;;;3.90;;
61322;SDS011;47203;48.428;11.974;2023-04-15T01:30:11;5.20;;;3.85;;
61322;SDS011;47203;48.428;11.974;2023-04-15T01:32:16;5.47;;;4.05;;
61322;SDS011;47203;48.428;11.974;2023-04-15T01:34:21;5.07;;;3.30;;
61322;SDS011;47203;48.428;11.974;2023-04-15T01:36:27;4.72;;;3.75;;
61322;SDS011;47203;48.428;11.974;2023-04-15T01:38:33;5.30;;;3.78;;
61322;SDS011;47203;48.428;11.974;2023-04-15T01:40:38;6.97;;;4.65;;
61322;SDS011;47203;48.428;11.974;2023-04-15T01:42:45;5.32;;;4.03;;
61322;SDS011;47203;48.428;11.974;2023-04-15T01:44:50;5.88;;;4.18;;
61322;SDS011;47203;48.428;11.974;2023-04-15T01:46:55;5.88;;;4.10;;
61322;SDS011;47203;48.428;11.974;2023-04-15T01:49:00;5.57;;;4.03;;
61322;SDS011;47203;48.428;11.974;2023-04-15T01:51:06;5.10;;;3.95;;
61322;SDS011;47203;48.428;11.974;2023-04-15T01:53:11;4.68;;;3.80;;
61322;SDS011;47203;48.428;11.974;2023-04-15T01:55:17;6.47;;;4.65;;
61322;SDS011;47203;48.428;11.974;2023-04-15T01:57:22;6.75;;;4.50;;
61322;SDS011;47203;48.428;11.974;2023-04-15T01:59:29;5.43;;;4.10;;
61322;SDS011;47203;48.428;11.974;2023-04-15T02:01:34;5.72;;;4.43;;
61322;SDS011;47203;48.428;11.974;2023-04-15T02:03:39;4.28;;;3.60;;
61322;SDS011;47203;48.428;11.974;2023-04-15T02:05:44;5.40;;;4.22;;
61322;SDS011;47203;48.428;11.974;2023-04-15T02:07:49;4.70;;;3.85;;
61322;SDS011;47203;48.428;11.974;2023-04-15T02:09:54;5.68;;;3.88;;
61322;SDS011;47203;48.428;11.974;2023-04-15T02:11:59;4.65;;;3.85;;
61322;SDS011;47203;48.428;11.974;2023-04-15T02:14:04;5.82;;;4.15;;
61322;SDS011;47203;48.428;11.974;2023-04-15T02:16:16;6.60;;;4.95;;
61322;SDS011;47203;48.428;11.974;2023-04-15T02:20:27;5.72;;;4.38;;
61322;SDS011;47203;48.428;11.974;2023-04-15T02:22:32;6.00;;;4.03;;
61322;SDS011;47203;48.428;11.974;2023-04-15T02:24:38;5.95;;;4.05;;
61322;SDS011;47203;48.428;11.974;2023-04-15T02:26:43;6.18;;;4.78;;
61322;SDS011;47203;48.428;11.974;2023-04-15T02:28:49;5.72;;;4.18;;
61322;SDS011;47203;48.428;11.974;2023-04-15T02:30:54;6.65;;;5.03;;
61322;SDS011;47203;48.428;11.974;2023-04-15T02:33:03;5.80;;;4.10;;
61322;SDS011;47203;48.428;11.974;2023-04-15T02:35:08;4.72;;;3.80;;
61322;SDS011;47203;48.428;11.974;2023-04-15T02:37:13;6.68;;;4.10;;
61322;SDS011;47203;48.428;11.974;2023-04-15T02:39:21;4.63;;;3.85;;
61322;SDS011;47203;48.428;11.974;2023-04-15T02:41:26;5.07;;;3.80;;
61322;SDS011;47203;48.428;11.974;2023-04-15T02:43:32;5.75;;;4.18;;
61322;SDS011;47203;48.428;11.974;2023-04-15T02:45:36;6.28;;;4.10;;
61322;SDS011;47203;48.428;11.974;2023-04-15T02:47:41;5.20;;;3.85;;
61322;SDS011;47203;48.428;11.974;2023-04-15T02:49:51;5.68;;;4.05;;
61322;SDS011;47203;48.428;11.974;2023-04-15T02:51:55;6.55;;;4.20;;
61322;SDS011;47203;48.428;11.974;2023-04-15T02:54:01;6.70;;;4.38;;
61322;SDS011;47203;48.428;11.974;2023-04-15T02:56:06;5.57;;;4.00;;
61322;SDS011;47203;48.428;11.974;2023-04-15T02:58:12;6.28;;;4.30;;
61322;SDS011;47203;48.428;11.974;2023-04-15T03:00:16;4.40;;;3.50;;
61322;SDS011;47203;48.428;11.974;2023-04-15T03:02:22;5.20;;;4.10;;
61322;SDS011;47203;48.428;11.974;2023-04-15T03:04:28;6.68;;;4.25;;
61322;SDS011;47203;48.428;11.974;2023-04-15T03:06:35;5.35;;;4.28;;
61322;SDS011;47203;48.428;11.974;2023-04-15T03:08:42;6.70;;;4.70;;
61322;SDS011;47203;48.428;11.974;2023-04-15T03:10:47;5.80;;;4.35;;
61322;SDS011;47203;48.428;11.974;2023-04-15T03:12:53;5.35;;;4.35;;
61322;SDS011;47203;48.428;11.974;2023-04-15T03:14:58;5.47;;;4.30;;
61322;SDS011;47203;48.428;11.974;2023-04-15T03:17:09;5.88;;;4.82;;
61322;SDS011;47203;48.428;11.974;2023-04-15T03:19:14;5.03;;;4.45;;
61322;SDS011;47203;48.428;11.974;2023-04-15T03:21:19;6.13;;;4.53;;
61322;SDS011;47203;48.428;11.974;2023-04-15T03:23:27;5.25;;;4.28;;
61322;SDS011;47203;48.428;11.974;2023-04-15T03:25:32;6.18;;;4.70;;
61322;SDS011;47203;48.428;11.974;2023-04-15T03:27:40;6.43;;;5.32;;
61322;SDS011;47203;48.428;11.974;2023-04-15T03:29:46;5.90;;;4.50;;
61322;SDS011;47203;48.428;11.974;2023-04-15T03:31:53;4.90;;;4.40;;
61322;SDS011;47203;48.428;11.974;2023-04-15T03:33:58;5.15;;;4.60;;
61322;SDS011;47203;48.428;11.974;2023-04-15T03:36:03;7.00;;;4.60;;
61322;SDS011;47203;48.428;11.974;2023-04-15T03:38:08;6.57;;;4.40;;
61322;SDS011;47203;48.428;11.974;2023-04-15T03:40:15;5.13;;;4.43;;
61322;SDS011;47203;48.428;11.974;2023-04-15T03:42:20;6.07;;;4.30;;
61322;SDS011;47203;48.428;11.974;2023-04-15T03:44:25;6.45;;;4.80;;
61322;SDS011;47203;48.428;11.974;2023-04-15T03:46:30;6.05;;;4.20;;
61322;SDS011;47203;48.428;11.974;2023-04-15T03:48:34;7.05;;;4.75;;
61322;SDS011;47203;48.428;11.974;2023-04-15T03:50:39;7.70;;;4.68;;
61322;SDS011;47203;48.428;11.974;2023-04-15T03:52:44;6.15;;;5.10;;
61322;SDS011;47203;48.428;11.974;2023-04-15T03:54:51;7.85;;;4.63;;
61322;SDS011;47203;48.428;11.974;2023-04-15T03:56:59;6.47;;;4.85;;
61322;SDS011;47203;48.428;11.974;2023-04-15T03:59:03;6.70;;;5.07;;
61322;SDS011;47203;48.428;11.974;2023-04-15T04:01:08;6.32;;;4.72;;
61322;SDS011;47203;48.428;11.974;2023-04-15T04:03:13;6.68;;;5.15;;
61322;SDS011;47203;48.428;11.974;2023-04-15T04:05:18;5.93;;;4.38;;
61322;SDS011;47203;48.428;11.974;2023-04-15T04:07:23;6.82;;;4.97;;
61322;SDS011;47203;48.428;11.974;2023-04-15T04:09:28;5.80;;;4.45;;
61322;SDS011;47203;48.428;11.974;2023-04-15T04:11:33;6.57;;;4.85;;
61322;SDS011;47203;48.428;11.974;2023-04-15T04:13:40;6.65;;;4.60;;
61322;SDS011;47203;48.428;11.974;2023-04-15T04:15:45;7.07;;;5.40;;
61322;SDS011;47203;48.428;11.974;2023-04-15T04:17:50;7.18;;;5.18;;
61322;SDS011;47203;48.428;11.974;2023-04-15T04:19:55;6.50;;;5.00;;
61322;SDS011;47203;48.428;11.974;2023-04-15T04:22:00;7.10;;;5.32;;
61322;SDS011;47203;48.428;11.974;2023-04-15T04:24:05;6.18;;;4.78;;
61322;SDS011;47203;48.428;11.974;2023-04-15T04:26:10;6.75;;;4.93;;
61322;SDS011;47203;48.428;11.974;2023-04-15T04:28:14;7.38;;;5.30;;
61322;SDS011;47203;48.428;11.974;2023-04-15T04:30:22;7.88;;;5.57;;
61322;SDS011;47203;48.428;11.974;2023-04-15T04:32:26;6.30;;;5.50;;
61322;SDS011;47203;48.428;11.974;2023-04-15T04:34:32;7.80;;;6.05;;
61322;SDS011;47203;48.428;11.974;2023-04-15T04:36:37;7.30;;;5.97;;
61322;SDS011;47203;48.428;11.974;2023-04-15T04:38:41;9.00;;;6.38;;
61322;SDS011;47203;48.428;11.974;2023-04-15T04:40:46;8.32;;;6.80;;
61322;SDS011;47203;48.428;11.974;2023-04-15T04:42:51;10.50;;;7.20;;
61322;SDS011;47203;48.428;11.974;2023-04-15T04:44:56;7.88;;;6.25;;
61322;SDS011;47203;48.428;11.974;2023-04-15T04:47:04;8.68;;;6.22;;
61322;SDS011;47203;48.428;11.974;2023-04-15T04:49:09;6.63;;;5.57;;
61322;SDS011;47203;48.428;11.974;2023-04-15T04:51:14;7.43;;;5.22;;
61322;SDS011;47203;48.428;11.974;2023-04-15T04:53:19;6.47;;;5.38;;
61322;SDS011;47203;48.428;11.974;2023-04-15T04:55:24;7.00;;;5.15;;
61322;SDS011;47203;48.428;11.974;2023-04-15T04:57:28;8.93;;;5.85;;
61322;SDS011;47203;48.428;11.974;2023-04-15T04:59:33;5.80;;;4.72;;
61322;SDS011;47203;48.428;11.974;2023-04-15T05:01:38;5.75;;;4.82;;
61322;SDS011;47203;48.428;11.974;2023-04-15T05:03:46;7.05;;;5.15;;
61322;SDS011;47203;48.428;11.974;2023-04-15T05:05:51;5.90;;;5.22;;
61322;SDS011;47203;48.428;11.974;2023-04-15T05:07:55;7.18;;;5.38;;
61322;SDS011;47203;48.428;11.974;2023-04-15T05:10:00;7.50;;;5.35;;
61322;SDS011;47203;48.428;11.974;2023-04-15T05:12:05;7.57;;;5.30;;
61322;SDS011;47203;48.428;11.974;2023-04-15T05:14:15;6.85;;;5.43;;
61322;SDS011;47203;48.428;11.974;2023-04-15T05:16:22;7.85;;;5.47;;
61322;SDS011;47203;48.428;11.974;2023-04-15T05:18:26;7.00;;;5.45;;
61322;SDS011;47203;48.428;11.974;2023-04-15T05:20:34;7.30;;;5.15;;
61322;SDS011;47203;48.428;11.974;2023-04-15T05:22:39;6.47;;;5.13;;
61322;SDS011;47203;48.428;11.974;2023-04-15T05:24:43;8.73;;;5.72;;
61322;SDS011;47203;48.428;11.974;2023-04-15T05:26:48;6.68;;;5.15;;
61322;SDS011;47203;48.428;11.974;2023-04-15T05:28:53;8.63;;;5.50;;
61322;SDS011;47203;48.428;11.974;2023-04-15T05:30:58;7.28;;;5.30;;
61322;SDS011;47203;48.428;11.974;2023-04-15T05:33:03;6.10;;;5.20;;
61322;SDS011;47203;48.428;11.974;2023-04-15T05:35:08;9.32;;;5.78;;
61322;SDS011;47203;48.428;11.974;2023-04-15T05:37:15;7.78;;;5.07;;
61322;SDS011;47203;48.428;11.974;2023-04-15T05:39:21;8.50;;;5.88;;
61322;SDS011;47203;48.428;11.974;2023-04-15T05:41:26;6.90;;;5.60;;
61322;SDS011;47203;48.428;11.974;2023-04-15T05:43:30;8.02;;;6.15;;
61322;SDS011;47203;48.428;11.974;2023-04-15T05:45:35;9.77;;;6.80;;
61322;SDS011;47203;48.428;11.974;2023-04-15T05:47:40;9.20;;;6.78;;
61322;SDS011;47203;48.428;11.974;2023-04-15T05:49:45;9.98;;;7.75;;
61322;SDS011;47203;48.428;11.974;2023-04-15T05:51:50;7.63;;;5.90;;
61322;SDS011;47203;48.428;11.974;2023-04-15T05:53:57;8.40;;;5.88;;
61322;SDS011;47203;48.428;11.974;2023-04-15T05:56:02;7.57;;;5.88;;
61322;SDS011;47203;48.428;11.974;2023-04-15T05:58:07;6.15;;;5.50;;
61322;SDS011;47203;48.428;11.974;2023-04-15T06:00:13;6.72;;;5.43;;
61322;SDS011;47203;48.428;11.974;2023-04-15T06:02:18;7.65;;;5.90;;
61322;SDS011;47203;48.428;11.974;2023-04-15T06:04:23;7.57;;;5.28;;
61322;SDS011;47203;48.428;11.974;2023-04-15T06:06:28;7.57;;;5.55;;
61322;SDS011;47203;48.428;11.974;2023-04-15T06:08:33;6.00;;;5.00;;
61322;SDS011;47203;48.428;11.974;2023-04-15T06:10:41;7.03;;;5.22;;
61322;SDS011;47203;48.428;11.974;2023-04-15T06:12:46;6.65;;;5.18;;
61322;SDS011;47203;48.428;11.974;2023-04-15T06:14:51;9.27;;;6.10;;
61322;SDS011;47203;48.428;11.974;2023-04-15T06:16:56;5.93;;;4.97;;
61322;SDS011;47203;48.428;11.974;2023-04-15T06:19:01;8.57;;;5.40;;
61322;SDS011;47203;48.428;11.974;2023-04-15T06:21:05;6.50;;;4.95;;
61322;SDS011;47203;48.428;11.974;2023-04-15T06:23:10;5.97;;;4.97;;
61322;SDS011;47203;48.428;11.974;2023-04-15T06:25:15;8.90;;;5.85;;
61322;SDS011;47203;48.428;11.974;2023-04-15T06:27:23;8.77;;;5.60;;
61322;SDS011;47203;48.428;11.974;2023-04-15T06:29:27;9.82;;;6.15;;
61322;SDS011;47203;48.428;11.974;2023-04-15T06:31:32;8.68;;;6.30;;
61322;SDS011;47203;48.428;11.974;2023-04-15T06:33:37;8.15;;;6.47;;
61322;SDS011;47203;48.428;11.974;2023-04-15T06:35:42;8.93;;;6.32;;
61322;SDS011;47203;48.428;11.974;2023-04-15T06:37:47;7.88;;;5.70;;
61322;SDS011;47203;48.428;11.974;2023-04-15T06:39:52;10.30;;;6.90;;
61322;SDS011;47203;48.428;11.974;2023-04-15T06:41:57;11.63;;;7.43;;
61322;SDS011;47203;48.428;11.974;2023-04-15T06:44:05;13.48;;;7.35;;
61322;SDS011;47203;48.428;11.974;2023-04-15T06:46:10;12.88;;;7.88;;
61322;SDS011;47203;48.428;11.974;2023-04-15T06:48:15;11.77;;;7.13;;
61322;SDS011;47203;48.428;11.974;2023-04-15T06:50:20;17.55;;;9.13;;
61322;SDS011;47203;48.428;11.974;2023-04-15T06:52:25;14.85;;;9.23;;
61322;SDS011;47203;48.428;11.974;2023-04-15T06:54:29;19.48;;;9.88;;
61322;SDS011;47203;48.428;11.974;2023-04-15T06:56:34;16.70;;;9.40;;
61322;SDS011;47203;48.428;11.974;2023-04-15T06:58:39;15.93;;;9.20;;
61322;SDS011;47203;48.428;11.974;2023-04-15T07:00:46;15.10;;;8.88;;
61322;SDS011;47203;48.428;11.974;2023-04-15T07:02:52;13.40;;;9.05;;
61322;SDS011;47203;48.428;11.974;2023-04-15T07:04:57;12.98;;;8.20;;
61322;SDS011;47203;48.428;11.974;2023-04-15T07:07:02;13.10;;;7.85;;
61322;SDS011;47203;48.428;11.974;2023-04-15T07:09:08;10.07;;;6.63;;
61322;SDS011;47203;48.428;11.974;2023-04-15T07:11:13;10.45;;;7.65;;
61322;SDS011;47203;48.428;11.974;2023-04-15T07:13:18;13.27;;;8.75;;
61322;SDS011;47203;48.428;11.974;2023-04-15T07:15:22;9.52;;;6.60;;
61322;SDS011;47203;48.428;11.974;2023-04-15T07:17:30;14.07;;;7.65;;
61322;SDS011;47203;48.428;11.974;2023-04-15T07:19:35;9.90;;;7.20;;
61322;SDS011;47203;48.428;11.974;2023-04-15T07:21:39;11.02;;;7.07;;
61322;SDS011;47203;48.428;11.974;2023-04-15T07:23:44;9.90;;;6.88;;
61322;SDS011;47203;48.428;11.974;2023-04-15T07:25:49;11.43;;;7.40;;
61322;SDS011;47203;48.428;11.974;2023-04-15T07:27:54;9.63;;;7.25;;
61322;SDS011;47203;48.428;11.974;2023-04-15T07:29:59;9.98;;;6.50;;
61322;SDS011;47203;48.428;11.974;2023-04-15T07:32:04;9.02;;;6.20;;
61322;SDS011;47203;48.428;11.974;2023-04-15T07:34:13;9.10;;;6.38;;
61322;SDS011;47203;48.428;11.974;2023-04-15T07:36:18;7.57;;;5.50;;
61322;SDS011;47203;48.428;11.974;2023-04-15T07:38:23;7.93;;;5.57;;
61322;SDS011;47203;48.428;11.974;2023-04-15T07:40:28;6.57;;;5.07;;
61322;SDS011;47203;48.428;11.974;2023-04-15T07:42:32;9.18;;;5.82;;
61322;SDS011;47203;48.428;11.974;2023-04-15T07:44:41;8.57;;;5.90;;
61322;SDS011;47203;48.428;11.974;2023-04-15T07:46:46;7.15;;;5.28;;
61322;SDS011;47203;48.428;11.974;2023-04-15T07:48:51;7.80;;;5.47;;
61322;SDS011;47203;48.428;11.974;2023-04-15T07:50:58;6.43;;;4.88;;
61322;SDS011;47203;48.428;11.974;2023-04-15T07:53:04;9.00;;;5.40;;
61322;SDS011;47203;48.428;11.974;2023-04-15T07:55:09;6.63;;;4.85;;
61322;SDS011;47203;48.428;11.974;2023-04-15T07:57:13;5.38;;;3.90;;
61322;SDS011;47203;48.428;11.974;2023-04-15T07:59:18;6.30;;;4.32;;
61322;SDS011;47203;48.428;11.974;2023-04-15T08:01:23;6.53;;;4.32;;
61322;SDS011;47203;48.428;11.974;2023-04-15T08:03:28;5.78;;;4.55;;
61322;SDS011;47203;48.428;11.974;2023-04-15T08:05:33;5.32;;;4.28;;
61322;SDS011;47203;48.428;11.974;2023-04-15T08:07:41;4.80;;;3.85;;
61322;SDS011;47203;48.428;11.974;2023-04-15T08:09:46;7.15;;;4.35;;
61322;SDS011;47203;48.428;11.974;2023-04-15T08:11:51;5.05;;;3.75;;
61322;SDS011;47203;48.428;11.974;2023-04-15T08:13:57;6.15;;;4.50;;
61322;SDS011;47203;48.428;11.974;2023-04-15T08:16:18;5.80;;;4.20;;
61322;SDS011;47203;48.428;11.974;2023-04-15T08:18:42;6.72;;;4.93;;
61322;SDS011;47203;48.428;11.974;2023-04-15T08:20:47;6.78;;;4.78;;
61322;SDS011;47203;48.428;11.974;2023-04-15T08:22:54;6.30;;;4.63;;
61322;SDS011;47203;48.428;11.974;2023-04-15T08:24:59;6.57;;;4.60;;
61322;SDS011;47203;48.428;11.974;2023-04-15T08:27:04;5.50;;;4.25;;
61322;SDS011;47203;48.428;11.974;2023-04-15T08:29:09;5.85;;;3.97;;
61322;SDS011;47203;48.428;11.974;2023-04-15T08:31:14;6.20;;;4.57;;
61322;SDS011;47203;48.428;11.974;2023-04-15T08:33:23;5.13;;;3.58;;
61322;SDS011;47203;48.428;11.974;2023-04-15T08:35:29;5.35;;;4.38;;
61322;SDS011;47203;48.428;11.974;2023-04-15T08:37:33;5.03;;;4.30;;
61322;SDS011;47203;48.428;11.974;2023-04-15T08:39:41;6.93;;;4.22;;
61322;SDS011;47203;48.428;11.974;2023-04-15T08:41:46;4.78;;;3.80;;
61322;SDS011;47203;48.428;11.974;2023-04-15T08:43:56;6.45;;;4.50;;
61322;SDS011;47203;48.428;11.974;2023-04-15T08:46:01;5.85;;;4.07;;
61322;SDS011;47203;48.428;11.974;2023-04-15T08:48:08;5.80;;;4.47;;
61322;SDS011;47203;48.428;11.974;2023-04-15T08:50:17;5.82;;;3.97;;
61322;SDS011;47203;48.428;11.974;2023-04-15T08:52:24;5.82;;;4.40;;
61322;SDS011;47203;48.428;11.974;2023-04-15T08:54:29;5.63;;;3.95;;
61322;SDS011;47203;48.428;11.974;2023-04-15T08:56:37;5.38;;;4.28;;
61322;SDS011;47203;48.428;11.974;2023-04-15T08:58:43;6.55;;;4.40;;
61322;SDS011;47203;48.428;11.974;2023-04-15T09:00:48;4.63;;;4.13;;
61322;SDS011;47203;48.428;11.974;2023-04-15T09:02:53;6.55;;;4.05;;
61322;SDS011;47203;48.428;11.974;2023-04-15T09:05:00;6.43;;;4.20;;
61322;SDS011;47203;48.428;11.974;2023-04-15T09:07:07;5.50;;;4.35;;
61322;SDS011;47203;48.428;11.974;2023-04-15T09:09:12;6.53;;;3.95;;
61322;SDS011;47203;48.428;11.974;2023-04-15T09:11:17;5.38;;;4.50;;
61322;SDS011;47203;48.428;11.974;2023-04-15T09:13:25;4.70;;;3.97;;
61322;SDS011;47203;48.428;11.974;2023-04-15T09:15:30;5.03;;;3.97;;
61322;SDS011;47203;48.428;11.974;2023-04-15T09:17:36;7.82;;;4.65;;
61322;SDS011;47203;48.428;11.974;2023-04-15T09:19:46;4.10;;;3.60;;
61322;SDS011;47203;48.428;11.974;2023-04-15T09:21:51;6.03;;;4.40;;
61322;SDS011;47203;48.428;11.974;2023-04-15T09:23:59;4.82;;;3.90;;
61322;SDS011;47203;48.428;11.974;2023-04-15T09:26:05;6.75;;;4.07;;
61322;SDS011;47203;48.428;11.974;2023-04-15T09:28:11;7.32;;;4.07;;
61322;SDS011;47203;48.428;11.974;2023-04-15T09:30:18;5.13;;;3.83;;
61322;SDS011;47203;48.428;11.974;2023-04-15T09:32:23;7.43;;;5.45;;
61322;SDS011;47203;48.428;11.974;2023-04-15T09:34:34;8.68;;;5.40;;
61322;SDS011;47203;48.428;11.974;2023-04-15T09:36:50;7.28;;;4.80;;
61322;SDS011;47203;48.428;11.974;2023-04-15T09:38:56;9.18;;;5.75;;
61322;SDS011;47203;48.428;11.974;2023-04-15T09:41:02;9.05;;;5.72;;
61322;SDS011;47203;48.428;11.974;2023-04-15T09:43:20;11.48;;;6.95;;
61322;SDS011;47203;48.428;11.974;2023-04-15T09:45:29;12.85;;;7.20;;
61322;SDS011;47203;48.428;11.974;2023-04-15T09:47:34;9.15;;;6.65;;
61322;SDS011;47203;48.428;11.974;2023-04-15T09:49:39;6.75;;;5.28;;
61322;SDS011;47203;48.428;11.974;2023-04-15T09:51:59;6.20;;;4.65;;
61322;SDS011;47203;48.428;11.974;2023-04-15T09:54:07;6.90;;;4.75;;
61322;SDS011;47203;48.428;11.974;2023-04-15T09:56:12;6.28;;;4.20;;
61322;SDS011;47203;48.428;11.974;2023-04-15T09:58:17;4.88;;;4.00;;
61322;SDS011;47203;48.428;11.974;2023-04-15T10:00:22;5.05;;;4.28;;
61322;SDS011;47203;48.428;11.974;2023-04-15T10:02:30;5.28;;;3.90;;
61322;SDS011;47203;48.428;11.974;2023-04-15T10:04:37;6.57;;;4.30;;
61322;SDS011;47203;48.428;11.974;2023-04-15T10:06:44;5.45;;;4.07;;
61322;SDS011;47203;48.428;11.974;2023-04-15T10:08:49;5.28;;;3.92;;
61322;SDS011;47203;48.428;11.974;2023-04-15T10:10:54;5.75;;;4.20;;
61322;SDS011;47203;48.428;11.974;2023-04-15T10:12:59;6.85;;;4.85;;
61322;SDS011;47203;48.428;11.974;2023-04-15T10:15:05;6.55;;;4.43;;
61322;SDS011;47203;48.428;11.974;2023-04-15T10:17:12;5.43;;;4.35;;
61322;SDS011;47203;48.428;11.974;2023-04-15T10:19:24;4.85;;;4.00;;
61322;SDS011;47203;48.428;11.974;2023-04-15T10:21:30;5.50;;;4.10;;
61322;SDS011;47203;48.428;11.974;2023-04-15T10:23:36;5.05;;;4.07;;
61322;SDS011;47203;48.428;11.974;2023-04-15T10:25:42;6.05;;;3.58;;
61322;SDS011;47203;48.428;11.974;2023-04-15T10:27:46;6.10;;;4.28;;
61322;SDS011;47203;48.428;11.974;2023-04-15T10:29:53;7.07;;;4.53;;
61322;SDS011;47203;48.428;11.974;2023-04-15T10:31:58;5.60;;;3.88;;
61322;SDS011;47203;48.428;11.974;2023-04-15T10:34:03;5.72;;;3.97;;
61322;SDS011;47203;48.428;11.974;2023-04-15T10:36:11;5.35;;;3.80;;
61322;SDS011;47203;48.428;11.974;2023-04-15T10:38:33;5.63;;;4.13;;
61322;SDS011;47203;48.428;11.974;2023-04-15T10:40:39;4.63;;;3.58;;
61322;SDS011;47203;48.428;11.974;2023-04-15T10:42:45;4.78;;;3.70;;
61322;SDS011;47203;48.428;11.974;2023-04-15T10:44:51;5.38;;;3.70;;
61322;SDS011;47203;48.428;11.974;2023-04-15T10:47:00;6.07;;;4.13;;
61322;SDS011;47203;48.428;11.974;2023-04-15T10:49:08;5.28;;;3.78;;
61322;SDS011;47203;48.428;11.974;2023-04-15T10:51:17;5.78;;;3.90;;
61322;SDS011;47203;48.428;11.974;2023-04-15T10:53:30;5.80;;;4.28;;
61322;SDS011;47203;48.428;11.974;2023-04-15T10:55:35;4.85;;;3.78;;
61322;SDS011;47203;48.428;11.974;2023-04-15T10:57:40;4.85;;;4.15;;
61322;SDS011;47203;48.428;11.974;2023-04-15T10:59:59;5.22;;;3.70;;
61322;SDS011;47203;48.428;11.974;2023-04-15T11:02:07;5.95;;;4.43;;
61322;SDS011;47203;48.428;11.974;2023-04-15T11:04:12;8.20;;;5.00;;
61322;SDS011;47203;48.428;11.974;2023-04-15T11:06:20;7.15;;;4.43;;
61322;SDS011;47203;48.428;11.974;2023-04-15T11:08:54;7.50;;;4.22;;
61322;SDS011;47203;48.428;11.974;2023-04-15T11:11:03;7.22;;;4.45;;
61322;SDS011;47203;48.428;11.974;2023-04-15T11:13:14;5.43;;;4.15;;
61322;SDS011;47203;48.428;11.974;2023-04-15T11:15:26;6.38;;;4.68;;
61322;SDS011;47203;48.428;11.974;2023-04-15T11:17:33;6.13;;;4.43;;
61322;SDS011;47203;48.428;11.974;2023-04-15T11:19:38;5.38;;;3.80;;
61322;SDS011;47203;48.428;11.974;2023-04-15T11:21:45;5.78;;;4.10;;
61322;SDS011;47203;48.428;11.974;2023-04-15T11:23:50;4.75;;;3.60;;
61322;SDS011;47203;48.428;11.974;2023-04-15T11:25:55;5.45;;;4.00;;
61322;SDS011;47203;48.428;11.974;2023-04-15T11:28:00;5.45;;;3.92;;
61322;SDS011;47203;48.428;11.974;2023-04-15T11:30:16;6.57;;;3.90;;
61322;SDS011;47203;48.428;11.974;2023-04-15T11:32:23;6.03;;;4.50;;
61322;SDS011;47203;48.428;11.974;2023-04-15T11:34:29;5.40;;;4.13;;
61322;SDS011;47203;48.428;11.974;2023-04-15T11:36:36;5.72;;;4.15;;
61322;SDS011;47203;48.428;11.974;2023-04-15T11:38:45;4.97;;;3.70;;
61322;SDS011;47203;48.428;11.974;2023-04-15T11:40:50;7.13;;;4.25;;
61322;SDS011;47203;48.428;11.974;2023-04-15T11:43:05;5.47;;;3.47;;
61322;SDS011;47203;48.428;11.974;2023-04-15T11:45:11;5.82;;;4.22;;
61322;SDS011;47203;48.428;11.974;2023-04-15T11:47:21;4.60;;;3.60;;
61322;SDS011;47203;48.428;11.974;2023-04-15T11:49:27;5.57;;;4.50;;
61322;SDS011;47203;48.428;11.974;2023-04-15T11:51:34;5.43;;;3.80;;
61322;SDS011;47203;48.428;11.974;2023-04-15T11:53:40;4.88;;;3.63;;
61322;SDS011;47203;48.428;11.974;2023-04-15T11:55:49;6.93;;;4.38;;
61322;SDS011;47203;48.428;11.974;2023-04-15T11:58:10;4.97;;;4.05;;
61322;SDS011;47203;48.428;11.974;2023-04-15T12:00:17;4.07;;;3.20;;
61322;SDS011;47203;48.428;11.974;2023-04-15T12:02:29;5.25;;;3.78;;
61322;SDS011;47203;48.428;11.974;2023-04-15T12:04:35;5.07;;;3.85;;
61322;SDS011;47203;48.428;11.974;2023-04-15T12:06:41;5.95;;;3.63;;
61322;SDS011;47203;48.428;11.974;2023-04-15T12:08:47;5.07;;;3.72;;
61322;SDS011;47203;48.428;11.974;2023-04-15T12:11:00;4.63;;;3.78;;
61322;SDS011;47203;48.428;11.974;2023-04-15T12:13:05;5.05;;;3.35;;
61322;SDS011;47203;48.428;11.974;2023-04-15T12:15:10;5.40;;;4.18;;
61322;SDS011;47203;48.428;11.974;2023-04-15T12:17:15;5.85;;;4.03;;
61322;SDS011;47203;48.428;11.974;2023-04-15T12:19:24;5.75;;;3.92;;
61322;SDS011;47203;48.428;11.974;2023-04-15T12:21:32;5.65;;;4.82;;
61322;SDS011;47203;48.428;11.974;2023-04-15T12:23:39;7.15;;;4.22;;
61322;SDS011;47203;48.428;11.974;2023-04-15T12:25:52;6.50;;;3.80;;
61322;SDS011;47203;48.428;11.974;2023-04-15T12:28:00;5.60;;;3.95;;
61322;SDS011;47203;48.428;11.974;2023-04-15T12:30:05;5.18;;;3.90;;